sensor_id;sensor_type;location;lat;lon;timestamp;pressure;altitude;pressure_sealevel;temperature;humidity
44697;BME280;57264;47.480;19.354;2023-06-05T09:12:14;99479.06;;;23.45;44.51
44697;BME280;57264;47.480;19.354;2023-06-05T09:14:39;99479.41;;;23.05;47.17
44697;BME280;57264;47.480;19.354;2023-06-05T09:17:04;99474.06;;;23.05;44.37
44697;BME280;57264;47.480;19.354;2023-06-05T09:19:37;99468.44;;;22.72;41.31
44697;BME280;57264;47.480;19.354;2023-06-05T09:22:03;99463.78;;;24.12;41.79
44697;BME280;57264;47.480;19.354;2023-06-05T09:24:30;99454.31;;;24.19;40.69
44697;BME280;57264;47.480;19.354;2023-06-05T09:26:56;99468.16;;;22.74;41.17
44697;BME280;57264;47.480;19.354;2023-06-05T09:29:26;99461.56;;;22.56;42.58
44697;BME280;57264;47.480;19.354;2023-06-05T09:31:52;99455.50;;;22.84;40.16
44697;BME280;57264;47.480;19.354;2023-06-05T09:34:25;99461.75;;;23.32;41.55
44697;BME280;57264;47.480;19.354;2023-06-05T09:36:51;99453.81;;;22.94;39.12
44697;BME280;57264;47.480;19.354;2023-06-05T09:39:17;99461.31;;;22.92;41.44
44697;BME280;57264;47.480;19.354;2023-06-05T09:41:46;99464.44;;;22.70;41.63
44697;BME280;57264;47.480;19.354;2023-06-05T09:44:11;99469.22;;;22.29;41.57
44697;BME280;57264;47.480;19.354;2023-06-05T09:49:23;99467.69;;;22.96;40.81
44697;BME280;57264;47.480;19.354;2023-06-05T09:51:49;99468.09;;;23.13;40.14
44697;BME280;57264;47.480;19.354;2023-06-05T09:54:15;99468.38;;;23.40;41.26
44697;BME280;57264;47.480;19.354;2023-06-05T09:56:41;99465.44;;;23.37;39.40
44697;BME280;57264;47.480;19.354;2023-06-05T09:59:08;99464.59;;;23.46;39.84
44697;BME280;57264;47.480;19.354;2023-06-05T10:01:35;99466.81;;;23.63;40.22
44697;BME280;57264;47.480;19.354;2023-06-05T10:04:05;99475.72;;;22.96;41.48
44697;BME280;57264;47.480;19.354;2023-06-05T10:06:31;99461.66;;;23.14;41.48
44697;BME280;57264;47.480;19.354;2023-06-05T10:08:57;99457.09;;;22.85;42.35
44697;BME280;57264;47.480;19.354;2023-06-05T10:11:24;99456.50;;;23.22;41.83
44697;BME280;57264;47.480;19.354;2023-06-05T10:13:51;99454.59;;;23.52;40.95
44697;BME280;57264;47.480;19.354;2023-06-05T10:16:17;99451.56;;;23.06;41.36
44697;BME280;57264;47.480;19.354;2023-06-05T10:18:47;99453.22;;;23.02;43.03
44697;BME280;57264;47.480;19.354;2023-06-05T10:21:16;99449.09;;;23.14;42.71
44697;BME280;57264;47.480;19.354;2023-06-05T10:23:43;99443.56;;;23.01;42.31
44697;BME280;57264;47.480;19.354;2023-06-05T10:26:12;99441.53;;;22.49;41.25
44697;BME280;57264;47.480;19.354;2023-06-05T10:31:29;99443.16;;;23.46;42.48
44697;BME280;57264;47.480;19.354;2023-06-05T10:34:08;99439.66;;;23.17;42.15
44697;BME280;57264;47.480;19.354;2023-06-05T10:39:09;99441.66;;;23.06;43.55
44697;BME280;57264;47.480;19.354;2023-06-05T10:41:35;99440.50;;;22.83;43.05
44697;BME280;57264;47.480;19.354;2023-06-05T10:44:01;99437.97;;;23.78;41.98
44697;BME280;57264;47.480;19.354;2023-06-05T10:51:33;99426.50;;;23.49;42.23
44697;BME280;57264;47.480;19.354;2023-06-05T10:54:02;99430.44;;;23.57;41.02
44697;BME280;57264;47.480;19.354;2023-06-05T10:59:12;99427.59;;;23.48;40.42
44697;BME280;57264;47.480;19.354;2023-06-05T11:01:41;99430.63;;;23.37;39.58
44697;BME280;57264;47.480;19.354;2023-06-05T11:04:07;99425.16;;;23.23;39.18
44697;BME280;57264;47.480;19.354;2023-06-05T11:06:32;99417.94;;;23.47;38.77
44697;BME280;57264;47.480;19.354;2023-06-05T11:09:12;99424.06;;;23.95;38.88
44697;BME280;57264;47.480;19.354;2023-06-05T11:14:25;99411.28;;;24.30;38.43
44697;BME280;57264;47.480;19.354;2023-06-05T11:19:51;99402.66;;;23.71;37.79
44697;BME280;57264;47.480;19.354;2023-06-05T11:22:16;99397.66;;;23.65;37.45
44697;BME280;57264;47.480;19.354;2023-06-05T11:24:43;99405.38;;;23.90;38.64
44697;BME280;57264;47.480;19.354;2023-06-05T11:27:39;99393.97;;;24.22;37.98
44697;BME280;57264;47.480;19.354;2023-06-05T11:29:54;99389.81;;;24.11;36.65
44697;BME280;57264;47.480;19.354;2023-06-05T11:32:19;99393.34;;;25.08;37.32
44697;BME280;57264;47.480;19.354;2023-06-05T11:34:48;99396.13;;;24.71;35.83
44697;BME280;57264;47.480;19.354;2023-06-05T11:37:15;99387.28;;;24.70;35.55
44697;BME280;57264;47.480;19.354;2023-06-05T11:39:44;99384.00;;;24.74;36.11
44697;BME280;57264;47.480;19.354;2023-06-05T11:42:09;99381.53;;;25.23;35.48
44697;BME280;57264;47.480;19.354;2023-06-05T11:44:35;99380.72;;;25.09;34.55
44697;BME280;57264;47.480;19.354;2023-06-05T11:47:01;99374.88;;;25.75;34.63
44697;BME280;57264;47.480;19.354;2023-06-05T11:49:27;99371.88;;;25.22;34.94
44697;BME280;57264;47.480;19.354;2023-06-05T11:51:52;99373.75;;;25.49;34.51
44697;BME280;57264;47.480;19.354;2023-06-05T11:54:25;99371.28;;;25.52;34.17
44697;BME280;57264;47.480;19.354;2023-06-05T11:56:55;99376.03;;;25.28;33.48
44697;BME280;57264;47.480;19.354;2023-06-05T11:59:20;99377.25;;;25.22;33.09
44697;BME280;57264;47.480;19.354;2023-06-05T12:01:46;99369.78;;;25.46;34.03
44697;BME280;57264;47.480;19.354;2023-06-05T12:04:12;99373.53;;;24.91;32.29
44697;BME280;57264;47.480;19.354;2023-06-05T12:06:44;99363.03;;;25.35;32.36
44697;BME280;57264;47.480;19.354;2023-06-05T12:09:12;99369.69;;;26.01;31.23
44697;BME280;57264;47.480;19.354;2023-06-05T12:11:39;99361.69;;;25.87;33.43
44697;BME280;57264;47.480;19.354;2023-06-05T12:14:05;99354.44;;;25.33;32.95
44697;BME280;57264;47.480;19.354;2023-06-05T12:19:00;99356.19;;;24.83;33.04
44697;BME280;57264;47.480;19.354;2023-06-05T12:21:26;99356.75;;;24.99;33.68
44697;BME280;57264;47.480;19.354;2023-06-05T12:23:52;99353.63;;;24.59;34.65
44697;BME280;57264;47.480;19.354;2023-06-05T12:26:25;99352.84;;;24.27;33.65
44697;BME280;57264;47.480;19.354;2023-06-05T12:28:51;99344.00;;;25.18;33.92
44697;BME280;57264;47.480;19.354;2023-06-05T12:31:33;99350.66;;;24.93;32.68
44697;BME280;57264;47.480;19.354;2023-06-05T12:34:00;99349.97;;;25.42;34.09
44697;BME280;57264;47.480;19.354;2023-06-05T12:36:25;99342.19;;;25.68;32.65
44697;BME280;57264;47.480;19.354;2023-06-05T12:38:53;99347.59;;;25.27;32.49
44697;BME280;57264;47.480;19.354;2023-06-05T12:41:19;99341.91;;;25.01;32.28
44697;BME280;57264;47.480;19.354;2023-06-05T12:43:44;99342.63;;;25.07;33.67
44697;BME280;57264;47.480;19.354;2023-06-05T12:46:10;99345.69;;;25.14;33.39
44697;BME280;57264;47.480;19.354;2023-06-05T12:48:37;99340.59;;;25.40;33.19
44697;BME280;57264;47.480;19.354;2023-06-05T12:51:02;99334.63;;;24.88;34.62
44697;BME280;57264;47.480;19.354;2023-06-05T12:53:28;99330.97;;;25.52;32.31
44697;BME280;57264;47.480;19.354;2023-06-05T12:55:53;99340.34;;;24.68;32.96
44697;BME280;57264;47.480;19.354;2023-06-05T12:58:18;99327.38;;;25.30;32.42
44697;BME280;57264;47.480;19.354;2023-06-05T13:00:44;99322.00;;;25.16;33.17
44697;BME280;57264;47.480;19.354;2023-06-05T13:03:09;99319.63;;;25.14;34.02
44697;BME280;57264;47.480;19.354;2023-06-05T13:05:35;99322.41;;;25.50;34.50
44697;BME280;57264;47.480;19.354;2023-06-05T13:08:01;99321.28;;;25.65;34.87
44697;BME280;57264;47.480;19.354;2023-06-05T13:10:27;99319.72;;;25.50;35.29
44697;BME280;57264;47.480;19.354;2023-06-05T13:12:52;99316.13;;;25.28;32.78
44697;BME280;57264;47.480;19.354;2023-06-05T13:15:18;99317.31;;;25.63;32.59
44697;BME280;57264;47.480;19.354;2023-06-05T13:17:43;99316.34;;;25.17;33.53
44697;BME280;57264;47.480;19.354;2023-06-05T13:20:11;99317.94;;;25.05;32.04
44697;BME280;57264;47.480;19.354;2023-06-05T13:22:36;99315.16;;;25.10;33.90
44697;BME280;57264;47.480;19.354;2023-06-05T13:25:02;99307.56;;;25.67;33.00
44697;BME280;57264;47.480;19.354;2023-06-05T13:27:27;99316.44;;;25.26;33.73
44697;BME280;57264;47.480;19.354;2023-06-05T13:29:53;99308.22;;;24.63;32.75
44697;BME280;57264;47.480;19.354;2023-06-05T13:32:18;99305.88;;;24.89;33.53
44697;BME280;57264;47.480;19.354;2023-06-05T13:34:45;99310.13;;;24.62;32.89
44697;BME280;57264;47.480;19.354;2023-06-05T13:37:11;99306.59;;;25.08;32.92
44697;BME280;57264;47.480;19.354;2023-06-05T13:39:37;99314.47;;;24.91;35.04
44697;BME280;57264;47.480;19.354;2023-06-05T13:42:02;99305.47;;;24.82;33.83
44697;BME280;57264;47.480;19.354;2023-06-05T13:44:27;99307.97;;;24.92;34.04
44697;BME280;57264;47.480;19.354;2023-06-05T13:46:53;99302.94;;;24.71;33.21
44697;BME280;57264;47.480;19.354;2023-06-05T13:49:18;99310.13;;;24.62;32.43
44697;BME280;57264;47.480;19.354;2023-06-05T13:51:44;99303.34;;;24.51;32.25
44697;BME280;57264;47.480;19.354;2023-06-05T13:54:09;99304.91;;;25.39;33.43
44697;BME280;57264;47.480;19.354;2023-06-05T13:56:34;99298.16;;;25.14;32.93
44697;BME280;57264;47.480;19.354;2023-06-05T13:59:00;99296.16;;;24.93;33.76
44697;BME280;57264;47.480;19.354;2023-06-05T14:01:25;99298.50;;;24.67;34.21
44697;BME280;57264;47.480;19.354;2023-06-05T14:03:51;99294.91;;;24.71;33.82
44697;BME280;57264;47.480;19.354;2023-06-05T14:06:16;99303.72;;;24.91;35.95
44697;BME280;57264;47.480;19.354;2023-06-05T14:08:42;99294.91;;;24.71;34.80
44697;BME280;57264;47.480;19.354;2023-06-05T14:11:08;99290.19;;;25.23;34.20
44697;BME280;57264;47.480;19.354;2023-06-05T14:13:34;99293.28;;;24.57;35.10
44697;BME280;57264;47.480;19.354;2023-06-05T14:15:59;99285.28;;;24.70;35.74
44697;BME280;57264;47.480;19.354;2023-06-05T14:18:25;99287.13;;;24.56;33.35
44697;BME280;57264;47.480;19.354;2023-06-05T14:20:50;99281.94;;;24.46;34.72
44697;BME280;57264;47.480;19.354;2023-06-05T14:23:16;99276.63;;;24.74;34.60
44697;BME280;57264;47.480;19.354;2023-06-05T14:25:41;99280.44;;;24.86;33.75
44697;BME280;57264;47.480;19.354;2023-06-05T14:28:07;99281.97;;;24.28;35.01
44697;BME280;57264;47.480;19.354;2023-06-05T14:30:35;99275.75;;;24.32;33.81
44697;BME280;57264;47.480;19.354;2023-06-05T14:33:00;99274.72;;;24.14;33.08
44697;BME280;57264;47.480;19.354;2023-06-05T14:35:25;99272.19;;;24.37;33.58
44697;BME280;57264;47.480;19.354;2023-06-05T14:37:52;99276.19;;;24.39;34.77
44697;BME280;57264;47.480;19.354;2023-06-05T14:40:18;99267.69;;;24.32;34.11
44697;BME280;57264;47.480;19.354;2023-06-05T14:42:43;99271.44;;;24.17;34.97
44697;BME280;57264;47.480;19.354;2023-06-05T14:45:09;99266.91;;;24.32;34.71
44697;BME280;57264;47.480;19.354;2023-06-05T14:47:34;99269.94;;;24.57;34.05
44697;BME280;57264;47.480;19.354;2023-06-05T14:50:00;99266.06;;;24.63;35.41
44697;BME280;57264;47.480;19.354;2023-06-05T14:52:25;99268.09;;;24.07;34.72
44697;BME280;57264;47.480;19.354;2023-06-05T14:54:50;99263.88;;;24.65;35.39
44697;BME280;57264;47.480;19.354;2023-06-05T14:57:16;99263.84;;;24.38;36.07
44697;BME280;57264;47.480;19.354;2023-06-05T14:59:44;99265.22;;;24.36;36.16
44697;BME280;57264;47.480;19.354;2023-06-05T15:02:10;99263.28;;;24.55;37.26
44697;BME280;57264;47.480;19.354;2023-06-05T15:04:35;99260.44;;;24.19;37.03
44697;BME280;57264;47.480;19.354;2023-06-05T15:07:01;99261.81;;;23.98;36.38
44697;BME280;57264;47.480;19.354;2023-06-05T15:09:26;99259.75;;;24.08;36.79
44697;BME280;57264;47.480;19.354;2023-06-05T15:11:51;99260.72;;;23.99;37.02
44697;BME280;57264;47.480;19.354;2023-06-05T15:14:20;99258.31;;;23.97;37.10
44697;BME280;57264;47.480;19.354;2023-06-05T15:16:46;99248.06;;;23.86;37.51
44697;BME280;57264;47.480;19.354;2023-06-05T15:19:11;99254.22;;;23.86;37.56
44697;BME280;57264;47.480;19.354;2023-06-05T15:21:37;99253.34;;;23.91;38.08
44697;BME280;57264;47.480;19.354;2023-06-05T15:24:02;99241.72;;;23.95;36.85
44697;BME280;57264;47.480;19.354;2023-06-05T15:26:28;99248.88;;;24.00;37.64
44697;BME280;57264;47.480;19.354;2023-06-05T15:28:53;99244.09;;;23.83;38.71
44697;BME280;57264;47.480;19.354;2023-06-05T15:31:18;99246.66;;;24.07;37.43
44697;BME280;57264;47.480;19.354;2023-06-05T15:33:44;99244.50;;;23.71;36.92
44697;BME280;57264;47.480;19.354;2023-06-05T15:36:09;99246.63;;;23.74;37.05
44697;BME280;57264;47.480;19.354;2023-06-05T15:38:37;99238.38;;;23.71;37.05
44697;BME280;57264;47.480;19.354;2023-06-05T15:41:03;99238.66;;;23.69;36.41
44697;BME280;57264;47.480;19.354;2023-06-05T15:43:29;99231.72;;;23.50;36.76
44697;BME280;57264;47.480;19.354;2023-06-05T15:45:55;99236.31;;;23.82;37.13
44697;BME280;57264;47.480;19.354;2023-06-05T15:48:21;99229.75;;;23.55;37.19
44697;BME280;57264;47.480;19.354;2023-06-05T15:50:47;99232.66;;;23.59;37.17
44697;BME280;57264;47.480;19.354;2023-06-05T15:53:13;99226.72;;;23.62;37.78
44697;BME280;57264;47.480;19.354;2023-06-05T15:55:39;99229.19;;;23.58;37.66
44697;BME280;57264;47.480;19.354;2023-06-05T15:58:06;99222.94;;;23.44;37.07
44697;BME280;57264;47.480;19.354;2023-06-05T16:00:32;99220.41;;;23.53;37.23
44697;BME280;57264;47.480;19.354;2023-06-05T16:02:58;99220.81;;;23.41;38.01
44697;BME280;57264;47.480;19.354;2023-06-05T16:05:25;99222.75;;;23.17;38.43
44697;BME280;57264;47.480;19.354;2023-06-05T16:07:51;99223.91;;;23.11;37.93
44697;BME280;57264;47.480;19.354;2023-06-05T16:10:16;99218.41;;;23.21;38.76
44697;BME280;57264;47.480;19.354;2023-06-05T16:12:43;99219.69;;;23.05;39.02
44697;BME280;57264;47.480;19.354;2023-06-05T16:15:09;99218.72;;;22.96;38.48
44697;BME280;57264;47.480;19.354;2023-06-05T16:17:35;99212.31;;;22.97;38.23
44697;BME280;57264;47.480;19.354;2023-06-05T16:20:02;99217.06;;;23.00;37.82
44697;BME280;57264;47.480;19.354;2023-06-05T16:22:32;99216.47;;;22.84;38.45
44697;BME280;57264;47.480;19.354;2023-06-05T16:24:57;99213.91;;;22.98;39.58
44697;BME280;57264;47.480;19.354;2023-06-05T16:27:22;99223.69;;;22.83;39.21
44697;BME280;57264;47.480;19.354;2023-06-05T16:29:48;99211.97;;;22.79;38.64
44697;BME280;57264;47.480;19.354;2023-06-05T16:32:14;99211.53;;;22.72;39.06
44697;BME280;57264;47.480;19.354;2023-06-05T16:34:39;99210.44;;;22.73;40.42
44697;BME280;57264;47.480;19.354;2023-06-05T16:37:05;99211.84;;;22.66;39.23
44697;BME280;57264;47.480;19.354;2023-06-05T16:39:30;99212.16;;;22.59;39.55
44697;BME280;57264;47.480;19.354;2023-06-05T16:41:56;99213.53;;;22.57;40.12
44697;BME280;57264;47.480;19.354;2023-06-05T16:44:26;99215.47;;;22.51;39.29
44697;BME280;57264;47.480;19.354;2023-06-05T16:46:51;99207.44;;;22.51;40.11
44697;BME280;57264;47.480;19.354;2023-06-05T16:49:17;99207.97;;;22.53;40.16
44697;BME280;57264;47.480;19.354;2023-06-05T16:51:42;99200.84;;;22.44;40.38
44697;BME280;57264;47.480;19.354;2023-06-05T16:54:08;99198.72;;;22.40;39.77
44697;BME280;57264;47.480;19.354;2023-06-05T16:56:33;99199.53;;;22.41;39.90
44697;BME280;57264;47.480;19.354;2023-06-05T16:58:59;99200.09;;;22.38;39.61
44697;BME280;57264;47.480;19.354;2023-06-05T17:01:24;99197.47;;;22.33;40.39
44697;BME280;57264;47.480;19.354;2023-06-05T17:03:50;99198.09;;;22.25;41.02
44697;BME280;57264;47.480;19.354;2023-06-05T17:06:15;99201.16;;;22.13;42.04
44697;BME280;57264;47.480;19.354;2023-06-05T17:08:41;99200.53;;;22.21;40.45
44697;BME280;57264;47.480;19.354;2023-06-05T17:11:06;99198.72;;;22.17;40.77
44697;BME280;57264;47.480;19.354;2023-06-05T17:13:32;99197.13;;;22.11;41.55
44697;BME280;57264;47.480;19.354;2023-06-05T17:15:57;99193.97;;;22.09;41.06
44697;BME280;57264;47.480;19.354;2023-06-05T17:18:22;99185.94;;;22.09;40.34
44697;BME280;57264;47.480;19.354;2023-06-05T17:20:48;99194.78;;;22.09;40.82
44697;BME280;57264;47.480;19.354;2023-06-05T17:23:13;99189.72;;;22.03;41.05
44697;BME280;57264;47.480;19.354;2023-06-05T17:25:39;99189.00;;;21.97;41.67
44697;BME280;57264;47.480;19.354;2023-06-05T17:28:04;99187.97;;;21.93;41.48
44697;BME280;57264;47.480;19.354;2023-06-05T17:30:30;99183.44;;;21.88;41.38
44697;BME280;57264;47.480;19.354;2023-06-05T17:32:55;99186.19;;;21.78;42.38
44697;BME280;57264;47.480;19.354;2023-06-05T17:35:21;99188.53;;;21.85;41.38
44697;BME280;57264;47.480;19.354;2023-06-05T17:37:46;99183.22;;;21.80;41.40
44697;BME280;57264;47.480;19.354;2023-06-05T17:40:13;99188.34;;;21.76;41.56
44697;BME280;57264;47.480;19.354;2023-06-05T17:42:38;99191.59;;;21.68;42.13
44697;BME280;57264;47.480;19.354;2023-06-05T17:45:04;99190.56;;;21.64;41.72
44697;BME280;57264;47.480;19.354;2023-06-05T17:47:30;99185.22;;;21.64;41.85
44697;BME280;57264;47.480;19.354;2023-06-05T17:49:55;99182.03;;;21.62;41.66
44697;BME280;57264;47.480;19.354;2023-06-05T17:52:20;99179.31;;;21.67;41.37
44697;BME280;57264;47.480;19.354;2023-06-05T17:54:46;99183.63;;;21.63;41.28
44697;BME280;57264;47.480;19.354;2023-06-05T17:57:11;99184.28;;;21.50;42.11
44697;BME280;57264;47.480;19.354;2023-06-05T17:59:36;99187.19;;;21.54;41.87
44697;BME280;57264;47.480;19.354;2023-06-05T18:02:02;99183.53;;;21.39;42.69
44697;BME280;57264;47.480;19.354;2023-06-05T18:04:27;99179.53;;;21.37;42.67
44697;BME280;57264;47.480;19.354;2023-06-05T18:06:54;99182.31;;;21.61;43.35
44697;BME280;57264;47.480;19.354;2023-06-05T18:09:19;99174.66;;;21.49;42.13
44697;BME280;57264;47.480;19.354;2023-06-05T18:11:45;99173.41;;;21.36;42.37
44697;BME280;57264;47.480;19.354;2023-06-05T18:14:13;99177.47;;;21.24;43.20
44697;BME280;57264;47.480;19.354;2023-06-05T18:16:38;99177.47;;;21.24;42.70
44697;BME280;57264;47.480;19.354;2023-06-05T18:19:04;99175.09;;;21.22;42.83
44697;BME280;57264;47.480;19.354;2023-06-05T18:21:29;99178.91;;;21.06;43.86
44697;BME280;57264;47.480;19.354;2023-06-05T18:23:54;99188.78;;;21.00;44.12
44697;BME280;57264;47.480;19.354;2023-06-05T18:26:21;99185.31;;;21.00;43.91
44697;BME280;57264;47.480;19.354;2023-06-05T18:28:46;99183.72;;;20.99;44.02
44697;BME280;57264;47.480;19.354;2023-06-05T18:31:12;99182.63;;;21.05;43.76
44697;BME280;57264;47.480;19.354;2023-06-05T18:33:38;99186.94;;;21.01;43.97
44697;BME280;57264;47.480;19.354;2023-06-05T18:36:03;99185.06;;;20.96;44.35
44697;BME280;57264;47.480;19.354;2023-06-05T18:38:29;99180.28;;;20.93;44.14
44697;BME280;57264;47.480;19.354;2023-06-05T18:40:54;99192.03;;;20.92;44.10
44697;BME280;57264;47.480;19.354;2023-06-05T18:43:20;99192.28;;;20.91;44.10
44697;BME280;57264;47.480;19.354;2023-06-05T18:45:45;99191.25;;;20.87;44.35
44697;BME280;57264;47.480;19.354;2023-06-05T18:48:11;99191.28;;;20.82;44.42
44697;BME280;57264;47.480;19.354;2023-06-05T18:50:39;99192.59;;;20.84;44.33
44697;BME280;57264;47.480;19.354;2023-06-05T18:53:04;99193.38;;;20.90;43.89
44697;BME280;57264;47.480;19.354;2023-06-05T18:55:30;99199.53;;;20.85;44.06
44697;BME280;57264;47.480;19.354;2023-06-05T18:57:55;99194.47;;;20.84;44.34
44697;BME280;57264;47.480;19.354;2023-06-05T19:00:20;99202.22;;;20.75;45.10
44697;BME280;57264;47.480;19.354;2023-06-05T19:02:46;99202.78;;;20.67;45.31
44697;BME280;57264;47.480;19.354;2023-06-05T19:17:34;99205.75;;;20.66;45.57
44697;BME280;57264;47.480;19.354;2023-06-05T19:20:00;99209.22;;;20.56;46.23
44697;BME280;57264;47.480;19.354;2023-06-05T19:22:25;99206.06;;;20.49;46.38
44697;BME280;57264;47.480;19.354;2023-06-05T19:24:51;99206.81;;;20.60;45.58
44697;BME280;57264;47.480;19.354;2023-06-05T19:27:16;99202.28;;;20.70;44.96
44697;BME280;57264;47.480;19.354;2023-06-05T19:29:42;99201.78;;;20.58;45.87
44697;BME280;57264;47.480;19.354;2023-06-05T19:32:08;99199.09;;;20.58;45.67
44697;BME280;57264;47.480;19.354;2023-06-05T19:34:33;99199.91;;;20.48;46.07
44697;BME280;57264;47.480;19.354;2023-06-05T19:36:58;99196.47;;;20.43;46.51
44697;BME280;57264;47.480;19.354;2023-06-05T19:39:24;99200.44;;;20.50;46.00
44697;BME280;57264;47.480;19.354;2023-06-05T19:41:52;99199.91;;;20.53;46.02
44697;BME280;57264;47.480;19.354;2023-06-05T19:44:17;99196.41;;;20.63;45.19
44697;BME280;57264;47.480;19.354;2023-06-05T19:46:43;99200.16;;;20.62;45.20
44697;BME280;57264;47.480;19.354;2023-06-05T19:49:08;99201.22;;;20.61;45.43
44697;BME280;57264;47.480;19.354;2023-06-05T19:51:37;99203.34;;;20.64;45.43
44697;BME280;57264;47.480;19.354;2023-06-05T19:54:03;99202.28;;;20.65;45.24
44697;BME280;57264;47.480;19.354;2023-06-05T19:56:29;99203.03;;;20.71;45.12
44697;BME280;57264;47.480;19.354;2023-06-05T19:58:54;99197.97;;;20.74;44.95
44697;BME280;57264;47.480;19.354;2023-06-05T20:01:20;99204.34;;;20.78;44.78
44697;BME280;57264;47.480;19.354;2023-06-05T20:03:45;99208.84;;;20.88;44.57
44697;BME280;57264;47.480;19.354;2023-06-05T20:06:11;99205.19;;;20.74;45.28
44697;BME280;57264;47.480;19.354;2023-06-05T20:08:36;99206.19;;;20.83;45.01
44697;BME280;57264;47.480;19.354;2023-06-05T20:11:02;99196.06;;;20.85;44.81
44697;BME280;57264;47.480;19.354;2023-06-05T20:13:27;99200.88;;;20.83;45.21
44697;BME280;57264;47.480;19.354;2023-06-05T20:15:53;99199.00;;;20.88;44.80
44697;BME280;57264;47.480;19.354;2023-06-05T20:18:21;99204.56;;;20.97;44.37
44697;BME280;57264;47.480;19.354;2023-06-05T20:20:46;99199.47;;;20.95;44.42
44697;BME280;57264;47.480;19.354;2023-06-05T20:23:11;99198.66;;;21.05;44.23
44697;BME280;57264;47.480;19.354;2023-06-05T20:25:37;99200.03;;;20.97;44.49
44697;BME280;57264;47.480;19.354;2023-06-05T20:28:02;99207.00;;;20.88;45.05
44697;BME280;57264;47.480;19.354;2023-06-05T20:30:29;99203.03;;;20.81;45.37
44697;BME280;57264;47.480;19.354;2023-06-05T20:32:58;99203.88;;;20.61;46.54
44697;BME280;57264;47.480;19.354;2023-06-05T20:35:27;99201.22;;;20.56;46.80
44697;BME280;57264;47.480;19.354;2023-06-05T20:37:55;99196.72;;;20.51;47.33
44697;BME280;57264;47.480;19.354;2023-06-05T20:40:21;99206.56;;;20.51;47.97
44697;BME280;57264;47.480;19.354;2023-06-05T20:42:47;99199.91;;;20.48;48.59
44697;BME280;57264;47.480;19.354;2023-06-05T20:45:15;99205.50;;;20.52;48.46
44697;BME280;57264;47.480;19.354;2023-06-05T20:47:41;99209.47;;;20.65;48.43
44697;BME280;57264;47.480;19.354;2023-06-05T20:50:08;99208.19;;;20.52;49.34
44697;BME280;57264;47.480;19.354;2023-06-05T20:52:36;99208.44;;;20.61;49.09
44697;BME280;57264;47.480;19.354;2023-06-05T20:55:02;99202.28;;;20.55;49.56
44697;BME280;57264;47.480;19.354;2023-06-05T20:57:29;99205.00;;;20.45;50.31
44697;BME280;57264;47.480;19.354;2023-06-05T20:59:56;99210.59;;;20.48;50.48
44697;BME280;57264;47.480;19.354;2023-06-05T21:02:23;99203.09;;;20.50;50.35
44697;BME280;57264;47.480;19.354;2023-06-05T21:04:49;99209.75;;;20.63;49.42
44697;BME280;57264;47.480;19.354;2023-06-05T21:07:15;99210.28;;;20.60;49.58
44697;BME280;57264;47.480;19.354;2023-06-05T21:09:40;99221.25;;;20.48;50.34
44697;BME280;57264;47.480;19.354;2023-06-05T21:12:20;99255.66;;;20.35;51.66
44697;BME280;57264;47.480;19.354;2023-06-05T21:14:45;99270.25;;;19.67;55.56
44697;BME280;57264;47.480;19.354;2023-06-05T21:17:11;99267.69;;;19.14;60.50
44697;BME280;57264;47.480;19.354;2023-06-05T21:19:36;99261.06;;;18.70;63.92
44697;BME280;57264;47.480;19.354;2023-06-05T21:22:02;99274.72;;;18.47;67.11
44697;BME280;57264;47.480;19.354;2023-06-05T21:24:31;99269.63;;;18.03;68.37
44697;BME280;57264;47.480;19.354;2023-06-05T21:26:57;99265.22;;;17.87;70.38
44697;BME280;57264;47.480;19.354;2023-06-05T21:29:24;99265.97;;;17.56;72.52
44697;BME280;57264;47.480;19.354;2023-06-05T21:31:51;99262.78;;;17.10;75.08
44697;BME280;57264;47.480;19.354;2023-06-05T21:34:16;99257.84;;;16.97;78.46
44697;BME280;57264;47.480;19.354;2023-06-05T21:36:42;99258.06;;;16.74;79.19
44697;BME280;57264;47.480;19.354;2023-06-05T21:39:09;99251.59;;;16.65;80.83
44697;BME280;57264;47.480;19.354;2023-06-05T21:41:35;99257.22;;;16.52;80.77
44697;BME280;57264;47.480;19.354;2023-06-05T21:44:01;99266.78;;;16.36;82.96
44697;BME280;57264;47.480;19.354;2023-06-05T21:46:27;99268.78;;;16.29;84.10
44697;BME280;57264;47.480;19.354;2023-06-05T21:48:52;99265.25;;;16.23;83.18
44697;BME280;57264;47.480;19.354;2023-06-05T21:51:17;99267.19;;;16.28;82.94
44697;BME280;57264;47.480;19.354;2023-06-05T21:53:43;99263.81;;;16.16;84.81
44697;BME280;57264;47.480;19.354;2023-06-05T21:56:08;99262.91;;;16.10;84.80
44697;BME280;57264;47.480;19.354;2023-06-05T21:58:34;99259.06;;;16.01;85.60
44697;BME280;57264;47.480;19.354;2023-06-05T22:00:59;99253.38;;;16.09;84.57
44697;BME280;57264;47.480;19.354;2023-06-05T22:03:24;99249.38;;;16.23;84.02
44697;BME280;57264;47.480;19.354;2023-06-05T22:05:50;99241.66;;;16.22;85.58
44697;BME280;57264;47.480;19.354;2023-06-05T22:08:16;99246.72;;;16.07;85.54
44697;BME280;57264;47.480;19.354;2023-06-05T22:10:41;99254.97;;;16.10;86.80
44697;BME280;57264;47.480;19.354;2023-06-05T22:13:07;99251.06;;;16.13;86.03
44697;BME280;57264;47.480;19.354;2023-06-05T22:15:34;99252.66;;;16.14;85.03
44697;BME280;57264;47.480;19.354;2023-06-05T22:18:01;99258.03;;;16.02;86.27
44697;BME280;57264;47.480;19.354;2023-06-05T22:20:30;99256.19;;;16.03;85.15
44697;BME280;57264;47.480;19.354;2023-06-05T22:22:56;99248.72;;;16.00;85.62
44697;BME280;57264;47.480;19.354;2023-06-05T22:25:21;99243.25;;;16.06;84.78
44697;BME280;57264;47.480;19.354;2023-06-05T22:27:46;99246.53;;;16.13;84.03
44697;BME280;57264;47.480;19.354;2023-06-05T22:30:12;99247.84;;;16.11;84.03
44697;BME280;57264;47.480;19.354;2023-06-05T22:32:37;99248.47;;;16.18;85.77